createdAt,value
2023-04-21T00:02:25.832Z,16.90
2023-04-21T00:07:27.608Z,16.80
2023-04-21T00:12:31.580Z,16.80
2023-04-21T00:17:33.275Z,16.87
2023-04-21T00:22:37.988Z,16.90
2023-04-21T00:27:41.818Z,17.40
2023-04-21T00:32:48.367Z,15.90
2023-04-21T00:37:52.240Z,17.37
2023-04-21T00:42:56.344Z,16.70
2023-04-21T00:47:58.031Z,15.77
2023-04-21T00:53:03.311Z,16.50
2023-04-21T00:58:06.043Z,15.43
2023-04-21T01:03:08.199Z,16.67
2023-04-21T01:08:13.296Z,15.37
2023-04-21T01:13:14.962Z,16.83
2023-04-21T01:18:25.115Z,16.50
2023-04-21T01:23:26.981Z,16.47
2023-04-21T01:28:31.265Z,16.23
2023-04-21T01:33:32.996Z,16.27
2023-04-21T01:38:38.756Z,16.50
2023-04-21T01:43:40.455Z,18.13
2023-04-21T01:48:46.670Z,16.67
2023-04-21T01:53:48.322Z,16.33
2023-04-21T01:58:53.335Z,17.33
2023-04-21T02:03:55.535Z,16.20
2023-04-21T02:09:00.127Z,18.00
2023-04-21T02:14:08.205Z,18.30
2023-04-21T02:19:10.001Z,16.87
2023-04-21T02:24:14.030Z,17.63
2023-04-21T02:29:15.999Z,16.93
2023-04-21T02:34:25.089Z,18.03
2023-04-21T02:39:26.910Z,16.77
2023-04-21T02:44:28.598Z,17.30
2023-04-21T02:49:30.253Z,17.03
2023-04-21T02:54:36.464Z,17.80
2023-04-21T02:59:40.483Z,16.93
2023-04-21T03:04:44.759Z,18.07
2023-04-21T03:09:51.203Z,16.53
2023-04-21T03:14:52.921Z,16.90
2023-04-21T03:19:59.372Z,17.47
2023-04-21T03:25:01.052Z,17.43
2023-04-21T03:30:02.991Z,17.00
2023-04-21T03:35:08.093Z,16.27
2023-04-21T03:40:12.402Z,15.77
2023-04-21T03:45:19.655Z,15.27
2023-04-21T03:50:21.398Z,15.30
2023-04-21T03:55:27.927Z,15.67
2023-04-21T04:00:29.632Z,15.43
2023-04-21T04:05:31.322Z,15.43
2023-04-21T04:10:35.288Z,14.73
2023-04-21T04:15:40.235Z,14.87
2023-04-21T04:20:41.950Z,15.20
2023-04-21T04:25:48.378Z,16.73
2023-04-21T04:30:50.583Z,14.87
2023-04-21T04:35:54.854Z,14.73
2023-04-21T04:40:58.965Z,15.47
2023-04-21T04:46:04.719Z,14.07
2023-04-21T04:51:06.450Z,13.17
2023-04-21T04:56:13.083Z,13.30
2023-04-21T05:01:20.043Z,12.47
2023-04-21T05:06:21.784Z,11.83
2023-04-21T05:11:26.021Z,12.93
2023-04-21T05:16:27.774Z,12.50
2023-04-21T05:21:33.447Z,12.57
2023-04-21T05:26:35.540Z,11.63
2023-04-21T05:31:39.625Z,11.67
2023-04-21T05:36:42.565Z,12.27
2023-04-21T05:41:47.000Z,12.20
2023-04-21T05:46:55.355Z,11.30
2023-04-21T05:51:59.283Z,10.63
2023-04-21T05:57:03.964Z,11.70
2023-04-21T06:02:06.224Z,11.30
2023-04-21T06:07:09.733Z,11.63
2023-04-21T06:12:13.963Z,10.70
2023-04-21T06:17:19.097Z,11.33
2023-04-21T06:22:21.005Z,10.83
2023-04-21T06:27:22.653Z,10.47
2023-04-21T06:32:24.371Z,10.40
2023-04-21T06:37:28.645Z,10.37
2023-04-21T06:42:32.596Z,10.80
2023-04-21T06:47:34.352Z,10.90
2023-04-21T06:52:36.276Z,11.07
2023-04-21T06:57:38.039Z,9.80
2023-04-21T07:02:42.317Z,11.23
2023-04-21T07:07:44.091Z,10.23
2023-04-21T07:12:46.552Z,10.67
2023-04-21T07:17:52.464Z,9.63
2023-04-21T07:22:56.883Z,10.10
2023-04-21T07:28:02.844Z,10.13
2023-04-21T07:33:06.827Z,10.00
2023-04-21T07:38:09.112Z,10.13
2023-04-21T07:43:12.908Z,10.40
2023-04-21T07:48:14.679Z,10.00
2023-04-21T07:53:18.722Z,9.98
2023-04-21T07:58:21.531Z,10.02
2023-04-21T08:03:24.618Z,9.85
2023-04-21T08:08:31.502Z,10.10
2023-04-21T08:13:38.404Z,10.20
2023-04-21T08:18:40.066Z,9.85
2023-04-21T08:23:41.795Z,9.85
2023-04-21T08:28:48.769Z,10.30
2023-04-21T08:34:01.782Z,9.35
2023-04-21T08:39:07.515Z,11.52
2023-04-21T08:44:11.822Z,9.68
2023-04-21T08:49:16.494Z,9.00
2023-04-21T08:54:18.221Z,9.18
2023-04-21T08:59:22.424Z,9.18
2023-04-21T09:04:30.218Z,9.50
2023-04-21T09:09:32.089Z,9.50
2023-04-21T09:14:37.140Z,9.90
2023-04-21T09:19:38.862Z,9.82
2023-04-21T09:24:53.096Z,8.68
2023-04-21T09:30:04.213Z,9.00
2023-04-21T09:35:12.602Z,10.32
2023-04-21T09:40:15.426Z,9.57
2023-04-21T09:45:36.624Z,9.43
2023-04-21T09:51:20.092Z,9.20
2023-04-21T09:56:04.896Z,9.80
2023-04-21T10:01:09.596Z,9.23
2023-04-21T10:06:14.971Z,9.73
2023-04-21T10:11:21.723Z,9.85
2023-04-21T10:16:28.145Z,9.15
2023-04-21T10:21:29.859Z,9.88
2023-04-21T10:26:35.369Z,9.73
2023-04-21T10:31:38.437Z,13.13
2023-04-21T10:36:49.053Z,9.48
2023-04-21T10:41:53.307Z,8.65
2023-04-21T10:46:55.093Z,9.30
2023-04-21T10:52:00.067Z,9.45
2023-04-21T10:57:01.927Z,8.98
2023-04-21T11:02:09.002Z,8.02
2023-04-21T11:07:16.589Z,9.35
2023-04-21T11:12:18.512Z,8.52
2023-04-21T11:17:24.351Z,8.50
2023-04-21T11:22:31.586Z,7.82
2023-04-21T11:27:33.948Z,8.48
2023-04-21T11:32:38.503Z,8.25
2023-04-21T11:37:41.232Z,8.00
2023-04-21T11:42:43.147Z,8.05
2023-04-21T11:47:45.342Z,8.10
2023-04-21T11:52:48.704Z,8.00
2023-04-21T11:57:52.808Z,7.25
2023-04-21T12:02:56.948Z,7.35
2023-04-21T12:07:59.010Z,7.03
2023-04-21T12:13:03.987Z,6.00
2023-04-21T12:18:13.588Z,6.70
2023-04-21T12:23:17.679Z,6.18
2023-04-21T12:28:22.049Z,6.10
2023-04-21T12:33:26.515Z,6.75
2023-04-21T12:38:28.595Z,6.88
2023-04-21T12:43:34.883Z,6.70
2023-04-21T12:48:36.787Z,7.32
2023-04-21T12:53:40.749Z,5.78
2023-04-21T12:58:42.504Z,5.60
2023-04-21T13:03:52.341Z,6.03
2023-04-21T13:08:57.011Z,6.10
2023-04-21T13:13:58.793Z,6.25
2023-04-21T13:19:00.897Z,6.20
2023-04-21T13:24:05.025Z,6.43
2023-04-21T13:29:06.702Z,5.70
2023-04-21T13:34:12.130Z,5.13
2023-04-21T13:39:14.951Z,5.10
2023-04-21T13:44:16.690Z,4.60
2023-04-21T13:49:20.993Z,4.93
2023-04-21T13:54:23.008Z,4.63
2023-04-21T13:59:24.729Z,4.78
2023-04-21T14:04:26.828Z,4.90
2023-04-21T14:09:31.037Z,5.13
2023-04-21T14:19:41.657Z,4.90
2023-04-21T14:24:43.394Z,4.07
2023-04-21T14:29:45.230Z,4.60
2023-04-21T14:34:53.297Z,4.68
2023-04-21T14:39:59.506Z,4.40
2023-04-21T14:45:03.705Z,4.63
2023-04-21T14:50:08.884Z,4.50
2023-04-21T14:55:11.002Z,4.68
2023-04-21T15:00:13.245Z,3.88
2023-04-21T15:05:18.903Z,5.03
2023-04-21T15:10:20.728Z,4.18
2023-04-21T15:15:24.653Z,4.60
2023-04-21T15:20:43.003Z,4.70
2023-04-21T15:25:46.140Z,4.95
2023-04-21T15:30:50.176Z,4.63
2023-04-21T15:35:52.313Z,4.53
2023-04-21T15:46:04.546Z,5.18
2023-04-21T15:51:15.973Z,5.63
2023-04-21T15:56:18.045Z,5.78
2023-04-21T16:01:22.416Z,5.65
2023-04-21T16:06:25.276Z,5.28
2023-04-21T16:11:29.482Z,5.25
2023-04-21T16:16:33.566Z,5.40
2023-04-21T16:21:40.022Z,5.32
2023-04-21T16:26:41.928Z,5.38
2023-04-21T16:31:43.763Z,5.75
2023-04-21T16:36:45.852Z,5.13
2023-04-21T16:41:49.811Z,5.90
2023-04-21T16:46:51.663Z,6.05
2023-04-21T16:51:53.559Z,5.55
2023-04-21T16:56:57.653Z,5.70
2023-04-21T17:01:59.408Z,5.93
2023-04-21T17:07:01.087Z,6.63
2023-04-21T17:12:05.754Z,6.82
2023-04-21T17:17:10.176Z,6.15
2023-04-21T17:22:18.891Z,5.85
2023-04-21T17:27:23.067Z,6.57
2023-04-21T17:32:25.233Z,6.32
2023-04-21T17:37:28.900Z,6.63
2023-04-21T17:42:33.331Z,6.25
2023-04-21T17:47:35.466Z,6.68
2023-04-21T17:52:38.016Z,6.65
2023-04-21T17:57:40.056Z,6.97
2023-04-21T18:02:44.410Z,6.88
2023-04-21T18:07:46.631Z,7.28
2023-04-21T18:12:50.846Z,7.50
2023-04-21T18:17:53.295Z,7.47
2023-04-21T18:22:55.253Z,7.07
2023-04-21T18:27:57.153Z,8.20
2023-04-21T18:33:03.699Z,6.80
2023-04-21T18:38:10.550Z,6.90
2023-04-21T18:43:15.306Z,7.50
2023-04-21T18:48:21.865Z,6.82
2023-04-21T18:53:28.598Z,7.00
2023-04-21T18:58:33.358Z,7.35
2023-04-21T19:03:35.408Z,6.72
2023-04-21T19:08:42.490Z,6.85
2023-04-21T19:13:48.229Z,6.80
2023-04-21T19:18:52.300Z,8.20
2023-04-21T19:23:57.896Z,6.80
2023-04-21T19:29:02.510Z,6.90
2023-04-21T19:34:04.665Z,7.13
2023-04-21T19:39:09.255Z,7.55
2023-04-21T19:44:13.330Z,6.80
2023-04-21T19:49:19.781Z,6.72
2023-04-21T19:54:23.839Z,7.40
2023-04-21T19:59:25.614Z,8.10
2023-04-21T20:04:29.885Z,7.03
2023-04-21T20:09:33.840Z,7.72
2023-04-21T20:14:35.867Z,7.32
2023-04-21T20:19:40.527Z,7.20
2023-04-21T20:24:44.594Z,7.32
2023-04-21T20:29:48.521Z,6.95
2023-04-21T20:34:51.728Z,7.65
2023-04-21T20:40:01.490Z,8.07
2023-04-21T20:45:06.310Z,7.68
2023-04-21T20:50:08.515Z,8.25
2023-04-21T20:55:14.945Z,7.82
2023-04-21T21:00:19.355Z,7.63
2023-04-21T21:05:21.235Z,8.10
2023-04-21T21:10:28.169Z,8.07
2023-04-21T21:15:35.205Z,8.15
2023-04-21T21:20:36.882Z,8.60
2023-04-21T21:25:40.877Z,7.82
2023-04-21T21:30:42.587Z,8.65
2023-04-21T21:35:46.603Z,8.65
2023-04-21T21:40:50.747Z,8.15
2023-04-21T21:45:54.731Z,8.77
2023-04-21T21:50:56.728Z,8.38
2023-04-21T21:56:01.781Z,7.93
2023-04-21T22:01:04.082Z,7.78
2023-04-21T22:06:06.262Z,8.30
2023-04-21T22:11:10.808Z,7.72
2023-04-21T22:16:14.775Z,8.07
2023-04-21T22:21:20.520Z,7.22
2023-04-21T22:26:24.508Z,6.93
2023-04-21T22:31:28.423Z,7.65
2023-04-21T22:36:32.736Z,7.85
2023-04-21T22:41:36.757Z,6.95
2023-04-21T22:46:43.725Z,7.03
2023-04-21T22:51:45.424Z,7.25
2023-04-21T22:56:47.126Z,7.65
2023-04-21T23:01:52.309Z,7.03
2023-04-21T23:06:56.522Z,7.07
2023-04-21T23:12:01.310Z,7.20
2023-04-21T23:17:06.080Z,7.00
2023-04-21T23:22:10.616Z,7.80
2023-04-21T23:27:15.360Z,7.30
2023-04-21T23:32:21.815Z,6.85
2023-04-21T23:37:28.297Z,6.82
2023-04-21T23:42:30.133Z,7.30
2023-04-21T23:47:34.183Z,7.22
2023-04-21T23:52:35.886Z,6.85
2023-04-21T23:57:39.915Z,6.68
